sensor_id;sensor_type;location;lat;lon;timestamp;P1;durP1;ratioP1;P2;durP2;ratioP2
74168;SDS011;62523;53.336;83.690;2024-01-11T00:03:09;2.78;;;0.82;;
74168;SDS011;62523;53.336;83.690;2024-01-11T00:08:11;3.63;;;0.90;;
74168;SDS011;62523;53.336;83.690;2024-01-11T00:13:13;2.67;;;0.73;;
74168;SDS011;62523;53.336;83.690;2024-01-11T00:23:15;3.88;;;1.05;;
74168;SDS011;62523;53.336;83.690;2024-01-11T00:28:17;3.95;;;0.82;;
74168;SDS011;62523;53.336;83.690;2024-01-11T00:33:19;4.55;;;1.85;;
74168;SDS011;62523;53.336;83.690;2024-01-11T00:38:20;1.90;;;1.70;;
74168;SDS011;62523;53.336;83.690;2024-01-11T00:43:21;1.80;;;0.77;;
74168;SDS011;62523;53.336;83.690;2024-01-11T00:48:23;5.90;;;1.92;;
74168;SDS011;62523;53.336;83.690;2024-01-11T00:53:24;1.27;;;0.90;;
74168;SDS011;62523;53.336;83.690;2024-01-11T00:58:31;1.67;;;0.75;;
74168;SDS011;62523;53.336;83.690;2024-01-11T01:03:32;2.00;;;1.17;;
74168;SDS011;62523;53.336;83.690;2024-01-11T01:08:33;1.63;;;0.50;;
74168;SDS011;62523;53.336;83.690;2024-01-11T01:13:35;2.13;;;1.30;;
74168;SDS011;62523;53.336;83.690;2024-01-11T01:18:36;2.65;;;1.83;;
74168;SDS011;62523;53.336;83.690;2024-01-11T01:23:38;4.13;;;1.17;;
74168;SDS011;62523;53.336;83.690;2024-01-11T01:28:39;4.68;;;2.35;;
74168;SDS011;62523;53.336;83.690;2024-01-11T01:33:41;6.53;;;2.05;;
74168;SDS011;62523;53.336;83.690;2024-01-11T01:43:43;4.43;;;1.92;;
74168;SDS011;62523;53.336;83.690;2024-01-11T01:48:45;2.33;;;1.58;;
74168;SDS011;62523;53.336;83.690;2024-01-11T01:53:46;6.57;;;2.03;;
74168;SDS011;62523;53.336;83.690;2024-01-11T01:58:50;6.93;;;0.55;;
74168;SDS011;62523;53.336;83.690;2024-01-11T02:03:54;2.05;;;1.20;;
74168;SDS011;62523;53.336;83.690;2024-01-11T02:13:57;0.63;;;0.38;;
74168;SDS011;62523;53.336;83.690;2024-01-11T02:18:59;3.00;;;1.23;;
74168;SDS011;62523;53.336;83.690;2024-01-11T02:24:04;1.30;;;0.60;;
74168;SDS011;62523;53.336;83.690;2024-01-11T02:29:06;0.73;;;0.40;;
74168;SDS011;62523;53.336;83.690;2024-01-11T02:34:08;6.90;;;1.33;;
74168;SDS011;62523;53.336;83.690;2024-01-11T02:39:11;0.40;;;0.40;;
74168;SDS011;62523;53.336;83.690;2024-01-11T02:44:14;4.00;;;1.25;;
74168;SDS011;62523;53.336;83.690;2024-01-11T02:49:15;2.23;;;0.70;;
74168;SDS011;62523;53.336;83.690;2024-01-11T02:54:17;1.05;;;0.75;;
74168;SDS011;62523;53.336;83.690;2024-01-11T03:04:19;1.02;;;0.50;;
74168;SDS011;62523;53.336;83.690;2024-01-11T03:09:21;1.33;;;1.15;;
74168;SDS011;62523;53.336;83.690;2024-01-11T03:19:23;8.02;;;1.15;;
74168;SDS011;62523;53.336;83.690;2024-01-11T03:24:25;5.03;;;1.10;;
74168;SDS011;62523;53.336;83.690;2024-01-11T03:29:26;1.30;;;1.20;;
74168;SDS011;62523;53.336;83.690;2024-01-11T03:34:27;0.55;;;0.55;;
74168;SDS011;62523;53.336;83.690;2024-01-11T03:39:29;0.28;;;0.28;;
74168;SDS011;62523;53.336;83.690;2024-01-11T03:44:30;2.40;;;1.30;;
74168;SDS011;62523;53.336;83.690;2024-01-11T03:49:32;1.55;;;0.88;;
74168;SDS011;62523;53.336;83.690;2024-01-11T03:54:33;2.50;;;1.37;;
74168;SDS011;62523;53.336;83.690;2024-01-11T03:59:34;0.60;;;0.40;;
74168;SDS011;62523;53.336;83.690;2024-01-11T04:04:36;2.13;;;1.00;;
74168;SDS011;62523;53.336;83.690;2024-01-11T04:09:38;2.92;;;1.38;;
74168;SDS011;62523;53.336;83.690;2024-01-11T04:14:39;2.65;;;1.48;;
74168;SDS011;62523;53.336;83.690;2024-01-11T04:19:41;15.73;;;4.93;;
74168;SDS011;62523;53.336;83.690;2024-01-11T04:24:42;1.57;;;1.00;;
74168;SDS011;62523;53.336;83.690;2024-01-11T04:29:44;3.15;;;0.65;;
74168;SDS011;62523;53.336;83.690;2024-01-11T04:34:45;3.80;;;1.83;;
74168;SDS011;62523;53.336;83.690;2024-01-11T04:39:47;1.03;;;0.80;;
74168;SDS011;62523;53.336;83.690;2024-01-11T04:44:48;2.85;;;1.13;;
74168;SDS011;62523;53.336;83.690;2024-01-11T04:49:50;7.38;;;1.88;;
74168;SDS011;62523;53.336;83.690;2024-01-11T04:54:51;4.22;;;2.05;;
74168;SDS011;62523;53.336;83.690;2024-01-11T04:59:52;2.95;;;1.10;;
74168;SDS011;62523;53.336;83.690;2024-01-11T05:04:54;4.55;;;1.33;;
74168;SDS011;62523;53.336;83.690;2024-01-11T05:09:55;8.23;;;1.63;;
74168;SDS011;62523;53.336;83.690;2024-01-11T05:14:57;3.53;;;1.23;;
74168;SDS011;62523;53.336;83.690;2024-01-11T05:19:58;2.05;;;1.15;;
74168;SDS011;62523;53.336;83.690;2024-01-11T05:24:59;1.87;;;0.70;;
74168;SDS011;62523;53.336;83.690;2024-01-11T05:30:01;2.53;;;1.10;;
74168;SDS011;62523;53.336;83.690;2024-01-11T05:35:04;1.55;;;1.25;;
74168;SDS011;62523;53.336;83.690;2024-01-11T05:45:08;2.95;;;1.88;;
74168;SDS011;62523;53.336;83.690;2024-01-11T05:50:10;2.05;;;1.10;;
74168;SDS011;62523;53.336;83.690;2024-01-11T05:55:13;3.38;;;1.42;;
74168;SDS011;62523;53.336;83.690;2024-01-11T06:00:14;4.43;;;2.85;;
74168;SDS011;62523;53.336;83.690;2024-01-11T06:05:16;4.07;;;1.75;;
74168;SDS011;62523;53.336;83.690;2024-01-11T06:10:17;4.22;;;3.03;;
74168;SDS011;62523;53.336;83.690;2024-01-11T06:20:20;4.22;;;2.05;;
74168;SDS011;62523;53.336;83.690;2024-01-11T06:25:22;6.10;;;3.20;;
74168;SDS011;62523;53.336;83.690;2024-01-11T06:30:23;7.40;;;2.93;;
74168;SDS011;62523;53.336;83.690;2024-01-11T06:35:24;9.30;;;2.23;;
74168;SDS011;62523;53.336;83.690;2024-01-11T06:40:26;12.05;;;4.47;;
74168;SDS011;62523;53.336;83.690;2024-01-11T06:45:28;8.40;;;3.03;;
74168;SDS011;62523;53.336;83.690;2024-01-11T06:50:29;6.13;;;1.70;;
74168;SDS011;62523;53.336;83.690;2024-01-11T06:55:30;6.53;;;2.17;;
74168;SDS011;62523;53.336;83.690;2024-01-11T07:00:32;6.13;;;2.70;;
74168;SDS011;62523;53.336;83.690;2024-01-11T07:05:33;9.03;;;1.07;;
74168;SDS011;62523;53.336;83.690;2024-01-11T07:10:34;4.97;;;1.53;;
74168;SDS011;62523;53.336;83.690;2024-01-11T07:15:36;10.45;;;1.88;;
74168;SDS011;62523;53.336;83.690;2024-01-11T07:20:37;6.53;;;1.80;;
74168;SDS011;62523;53.336;83.690;2024-01-11T07:25:39;4.63;;;2.87;;
74168;SDS011;62523;53.336;83.690;2024-01-11T07:30:41;6.60;;;1.50;;
74168;SDS011;62523;53.336;83.690;2024-01-11T07:35:43;3.67;;;2.10;;
74168;SDS011;62523;53.336;83.690;2024-01-11T07:40:44;22.23;;;5.33;;
74168;SDS011;62523;53.336;83.690;2024-01-11T07:45:45;9.13;;;2.90;;
74168;SDS011;62523;53.336;83.690;2024-01-11T07:50:47;10.40;;;2.97;;
74168;SDS011;62523;53.336;83.690;2024-01-11T07:55:48;7.17;;;2.53;;
74168;SDS011;62523;53.336;83.690;2024-01-11T08:00:50;8.13;;;3.47;;
74168;SDS011;62523;53.336;83.690;2024-01-11T08:05:52;6.18;;;2.28;;
74168;SDS011;62523;53.336;83.690;2024-01-11T08:15:55;3.55;;;1.67;;
74168;SDS011;62523;53.336;83.690;2024-01-11T08:20:58;6.07;;;1.17;;
74168;SDS011;62523;53.336;83.690;2024-01-11T08:25:59;2.60;;;0.77;;
74168;SDS011;62523;53.336;83.690;2024-01-11T08:31:01;5.43;;;1.70;;
74168;SDS011;62523;53.336;83.690;2024-01-11T08:36:05;0.95;;;0.93;;
74168;SDS011;62523;53.336;83.690;2024-01-11T08:41:07;3.20;;;1.05;;
74168;SDS011;62523;53.336;83.690;2024-01-11T08:46:08;2.17;;;0.80;;
74168;SDS011;62523;53.336;83.690;2024-01-11T08:51:10;6.20;;;1.35;;
74168;SDS011;62523;53.336;83.690;2024-01-11T08:56:11;2.78;;;1.65;;
74168;SDS011;62523;53.336;83.690;2024-01-11T09:01:13;1.65;;;1.13;;
74168;SDS011;62523;53.336;83.690;2024-01-11T09:06:18;2.35;;;0.98;;
74168;SDS011;62523;53.336;83.690;2024-01-11T09:11:20;1.70;;;0.98;;
74168;SDS011;62523;53.336;83.690;2024-01-11T09:16:21;13.02;;;5.65;;
74168;SDS011;62523;53.336;83.690;2024-01-11T09:26:24;2.58;;;1.00;;
74168;SDS011;62523;53.336;83.690;2024-01-11T09:36:27;2.70;;;0.77;;
74168;SDS011;62523;53.336;83.690;2024-01-11T09:41:29;3.37;;;1.13;;
74168;SDS011;62523;53.336;83.690;2024-01-11T09:46:32;6.82;;;2.88;;
74168;SDS011;62523;53.336;83.690;2024-01-11T09:51:34;1.98;;;0.77;;
74168;SDS011;62523;53.336;83.690;2024-01-11T09:56:41;3.47;;;1.35;;
74168;SDS011;62523;53.336;83.690;2024-01-11T10:01:44;4.32;;;2.33;;
74168;SDS011;62523;53.336;83.690;2024-01-11T10:06:46;2.42;;;1.33;;
74168;SDS011;62523;53.336;83.690;2024-01-11T10:11:49;5.85;;;1.70;;
74168;SDS011;62523;53.336;83.690;2024-01-11T10:21:54;6.85;;;2.50;;
74168;SDS011;62523;53.336;83.690;2024-01-11T10:31:58;14.05;;;5.35;;
74168;SDS011;62523;53.336;83.690;2024-01-11T10:36:59;12.43;;;5.57;;
74168;SDS011;62523;53.336;83.690;2024-01-11T10:42:04;27.35;;;14.85;;
74168;SDS011;62523;53.336;83.690;2024-01-11T10:47:08;7.63;;;5.45;;
74168;SDS011;62523;53.336;83.690;2024-01-11T10:52:20;9.19;;;4.49;;
74168;SDS011;62523;53.336;83.690;2024-01-11T10:57:29;8.00;;;5.67;;
74168;SDS011;62523;53.336;83.690;2024-01-11T11:02:31;12.13;;;6.35;;
74168;SDS011;62523;53.336;83.690;2024-01-11T11:07:35;24.10;;;15.77;;
74168;SDS011;62523;53.336;83.690;2024-01-11T11:12:39;23.70;;;15.13;;
74168;SDS011;62523;53.336;83.690;2024-01-11T11:17:42;34.88;;;23.55;;
74168;SDS011;62523;53.336;83.690;2024-01-11T11:22:48;22.00;;;14.30;;
74168;SDS011;62523;53.336;83.690;2024-01-11T11:28:04;10.05;;;6.57;;
74168;SDS011;62523;53.336;83.690;2024-01-11T11:38:28;9.35;;;6.88;;
74168;SDS011;62523;53.336;83.690;2024-01-11T11:43:31;11.98;;;6.55;;
74168;SDS011;62523;53.336;83.690;2024-01-11T11:53:42;11.48;;;4.78;;
74168;SDS011;62523;53.336;83.690;2024-01-11T11:58:44;4.07;;;3.30;;
74168;SDS011;62523;53.336;83.690;2024-01-11T12:03:46;6.82;;;2.67;;
74168;SDS011;62523;53.336;83.690;2024-01-11T12:08:51;8.13;;;3.30;;
74168;SDS011;62523;53.336;83.690;2024-01-11T12:13:54;11.02;;;4.72;;
74168;SDS011;62523;53.336;83.690;2024-01-11T12:18:57;7.38;;;3.58;;
74168;SDS011;62523;53.336;83.690;2024-01-11T12:23:59;6.85;;;3.38;;
74168;SDS011;62523;53.336;83.690;2024-01-11T12:29:01;7.35;;;3.67;;
74168;SDS011;62523;53.336;83.690;2024-01-11T12:34:03;3.95;;;1.83;;
74168;SDS011;62523;53.336;83.690;2024-01-11T12:39:04;8.93;;;3.30;;
74168;SDS011;62523;53.336;83.690;2024-01-11T12:44:07;6.32;;;4.32;;
74168;SDS011;62523;53.336;83.690;2024-01-11T12:49:09;10.02;;;6.88;;
74168;SDS011;62523;53.336;83.690;2024-01-11T12:54:11;21.30;;;7.50;;
74168;SDS011;62523;53.336;83.690;2024-01-11T12:59:29;11.55;;;4.30;;
74168;SDS011;62523;53.336;83.690;2024-01-11T13:09:31;3.85;;;2.47;;
74168;SDS011;62523;53.336;83.690;2024-01-11T13:14:34;7.63;;;2.15;;
74168;SDS011;62523;53.336;83.690;2024-01-11T13:19:35;8.43;;;2.40;;
74168;SDS011;62523;53.336;83.690;2024-01-11T13:24:36;9.05;;;3.45;;
74168;SDS011;62523;53.336;83.690;2024-01-11T13:29:38;6.13;;;2.83;;
74168;SDS011;62523;53.336;83.690;2024-01-11T13:39:41;12.93;;;3.40;;
74168;SDS011;62523;53.336;83.690;2024-01-11T13:44:42;5.87;;;4.03;;
74168;SDS011;62523;53.336;83.690;2024-01-11T13:49:43;25.85;;;5.10;;
74168;SDS011;62523;53.336;83.690;2024-01-11T13:54:46;4.55;;;2.33;;
74168;SDS011;62523;53.336;83.690;2024-01-11T13:59:48;3.90;;;2.73;;
74168;SDS011;62523;53.336;83.690;2024-01-11T14:04:51;4.38;;;1.98;;
74168;SDS011;62523;53.336;83.690;2024-01-11T14:09:53;3.47;;;2.42;;
74168;SDS011;62523;53.336;83.690;2024-01-11T14:14:54;15.02;;;3.72;;
74168;SDS011;62523;53.336;83.690;2024-01-11T14:19:55;6.78;;;4.15;;
74168;SDS011;62523;53.336;83.690;2024-01-11T14:24:57;3.28;;;2.40;;
74168;SDS011;62523;53.336;83.690;2024-01-11T14:35:00;4.13;;;3.22;;
74168;SDS011;62523;53.336;83.690;2024-01-11T14:40:05;6.15;;;2.90;;
74168;SDS011;62523;53.336;83.690;2024-01-11T14:45:08;9.02;;;3.63;;
74168;SDS011;62523;53.336;83.690;2024-01-11T14:50:09;3.63;;;1.95;;
74168;SDS011;62523;53.336;83.690;2024-01-11T14:55:12;5.45;;;2.47;;
74168;SDS011;62523;53.336;83.690;2024-01-11T15:00:13;15.30;;;3.53;;
74168;SDS011;62523;53.336;83.690;2024-01-11T15:05:15;2.88;;;1.60;;
74168;SDS011;62523;53.336;83.690;2024-01-11T15:10:17;5.60;;;2.53;;
74168;SDS011;62523;53.336;83.690;2024-01-11T15:15:20;5.10;;;2.85;;
74168;SDS011;62523;53.336;83.690;2024-01-11T15:20:22;6.20;;;1.75;;
74168;SDS011;62523;53.336;83.690;2024-01-11T15:30:27;5.35;;;1.33;;
74168;SDS011;62523;53.336;83.690;2024-01-11T15:35:28;8.50;;;2.97;;
74168;SDS011;62523;53.336;83.690;2024-01-11T15:40:30;4.00;;;2.53;;
74168;SDS011;62523;53.336;83.690;2024-01-11T15:45:34;8.02;;;4.82;;
74168;SDS011;62523;53.336;83.690;2024-01-11T15:50:36;9.70;;;4.70;;
74168;SDS011;62523;53.336;83.690;2024-01-11T15:55:37;7.93;;;3.83;;
74168;SDS011;62523;53.336;83.690;2024-01-11T16:00:38;7.68;;;3.22;;
74168;SDS011;62523;53.336;83.690;2024-01-11T16:05:40;6.03;;;2.57;;
74168;SDS011;62523;53.336;83.690;2024-01-11T16:10:41;7.40;;;4.50;;
74168;SDS011;62523;53.336;83.690;2024-01-11T16:15:43;4.40;;;2.03;;
74168;SDS011;62523;53.336;83.690;2024-01-11T16:25:46;4.10;;;2.00;;
74168;SDS011;62523;53.336;83.690;2024-01-11T16:35:48;4.13;;;1.30;;
74168;SDS011;62523;53.336;83.690;2024-01-11T16:40:50;0.98;;;0.47;;
74168;SDS011;62523;53.336;83.690;2024-01-11T16:45:52;1.98;;;0.93;;
74168;SDS011;62523;53.336;83.690;2024-01-11T16:50:54;2.17;;;0.82;;
74168;SDS011;62523;53.336;83.690;2024-01-11T17:00:57;3.35;;;1.98;;
74168;SDS011;62523;53.336;83.690;2024-01-11T17:05:58;3.22;;;1.48;;
74168;SDS011;62523;53.336;83.690;2024-01-11T17:11:00;8.57;;;4.28;;
74168;SDS011;62523;53.336;83.690;2024-01-11T17:16:01;8.30;;;4.88;;
74168;SDS011;62523;53.336;83.690;2024-01-11T17:21:03;6.10;;;3.30;;
74168;SDS011;62523;53.336;83.690;2024-01-11T17:26:06;4.75;;;2.85;;
74168;SDS011;62523;53.336;83.690;2024-01-11T17:31:08;7.45;;;3.08;;
74168;SDS011;62523;53.336;83.690;2024-01-11T17:36:11;9.05;;;4.15;;
74168;SDS011;62523;53.336;83.690;2024-01-11T17:41:12;5.78;;;3.45;;
74168;SDS011;62523;53.336;83.690;2024-01-11T17:46:20;9.38;;;5.75;;
74168;SDS011;62523;53.336;83.690;2024-01-11T17:51:24;7.65;;;5.55;;
74168;SDS011;62523;53.336;83.690;2024-01-11T17:56:27;12.52;;;4.13;;
74168;SDS011;62523;53.336;83.690;2024-01-11T18:01:28;4.40;;;3.53;;
74168;SDS011;62523;53.336;83.690;2024-01-11T18:06:29;6.95;;;4.60;;
74168;SDS011;62523;53.336;83.690;2024-01-11T18:11:31;3.97;;;2.50;;
74168;SDS011;62523;53.336;83.690;2024-01-11T18:16:32;4.85;;;2.67;;
74168;SDS011;62523;53.336;83.690;2024-01-11T18:21:34;4.25;;;2.08;;
74168;SDS011;62523;53.336;83.690;2024-01-11T18:26:35;5.25;;;2.47;;
74168;SDS011;62523;53.336;83.690;2024-01-11T18:31:37;4.93;;;2.95;;
74168;SDS011;62523;53.336;83.690;2024-01-11T18:36:45;6.80;;;2.75;;
74168;SDS011;62523;53.336;83.690;2024-01-11T18:41:47;6.30;;;4.53;;
74168;SDS011;62523;53.336;83.690;2024-01-11T18:46:49;5.80;;;3.10;;
74168;SDS011;62523;53.336;83.690;2024-01-11T18:51:51;26.65;;;3.80;;
74168;SDS011;62523;53.336;83.690;2024-01-11T19:01:53;9.35;;;3.65;;
74168;SDS011;62523;53.336;83.690;2024-01-11T19:06:55;32.95;;;4.88;;
74168;SDS011;62523;53.336;83.690;2024-01-11T19:11:58;12.07;;;4.65;;
74168;SDS011;62523;53.336;83.690;2024-01-11T19:17:01;18.08;;;5.20;;
74168;SDS011;62523;53.336;83.690;2024-01-11T19:22:04;17.83;;;5.60;;
74168;SDS011;62523;53.336;83.690;2024-01-11T19:27:05;25.17;;;4.85;;
74168;SDS011;62523;53.336;83.690;2024-01-11T19:32:07;18.40;;;5.78;;
74168;SDS011;62523;53.336;83.690;2024-01-11T19:37:08;30.10;;;7.38;;
74168;SDS011;62523;53.336;83.690;2024-01-11T19:42:19;17.88;;;6.25;;
74168;SDS011;62523;53.336;83.690;2024-01-11T19:47:20;23.65;;;6.90;;
74168;SDS011;62523;53.336;83.690;2024-01-11T19:52:21;28.55;;;6.20;;
74168;SDS011;62523;53.336;83.690;2024-01-11T19:57:23;29.47;;;6.93;;
74168;SDS011;62523;53.336;83.690;2024-01-11T20:02:25;30.45;;;6.40;;
74168;SDS011;62523;53.336;83.690;2024-01-11T20:07:26;17.55;;;5.47;;
74168;SDS011;62523;53.336;83.690;2024-01-11T20:12:27;10.55;;;5.00;;
74168;SDS011;62523;53.336;83.690;2024-01-11T20:17:29;19.17;;;5.90;;
74168;SDS011;62523;53.336;83.690;2024-01-11T20:22:30;13.43;;;5.68;;
74168;SDS011;62523;53.336;83.690;2024-01-11T20:27:33;9.88;;;4.60;;
74168;SDS011;62523;53.336;83.690;2024-01-11T20:32:35;6.43;;;4.88;;
74168;SDS011;62523;53.336;83.690;2024-01-11T20:37:37;14.73;;;6.55;;
74168;SDS011;62523;53.336;83.690;2024-01-11T20:42:40;8.55;;;4.70;;
74168;SDS011;62523;53.336;83.690;2024-01-11T20:47:42;16.47;;;6.13;;
74168;SDS011;62523;53.336;83.690;2024-01-11T20:52:43;12.05;;;5.00;;
74168;SDS011;62523;53.336;83.690;2024-01-11T20:57:45;10.73;;;5.75;;
74168;SDS011;62523;53.336;83.690;2024-01-11T21:02:46;6.80;;;5.17;;
74168;SDS011;62523;53.336;83.690;2024-01-11T21:12:49;10.65;;;5.82;;
74168;SDS011;62523;53.336;83.690;2024-01-11T21:17:51;11.57;;;6.30;;
74168;SDS011;62523;53.336;83.690;2024-01-11T21:22:52;9.73;;;4.90;;
74168;SDS011;62523;53.336;83.690;2024-01-11T21:32:55;7.70;;;4.68;;
74168;SDS011;62523;53.336;83.690;2024-01-11T21:37:57;10.77;;;5.20;;
74168;SDS011;62523;53.336;83.690;2024-01-11T21:42:59;11.10;;;5.07;;
74168;SDS011;62523;53.336;83.690;2024-01-11T21:48:00;7.10;;;5.18;;
74168;SDS011;62523;53.336;83.690;2024-01-11T21:53:02;8.15;;;4.85;;
74168;SDS011;62523;53.336;83.690;2024-01-11T21:58:03;7.38;;;4.10;;
74168;SDS011;62523;53.336;83.690;2024-01-11T22:03:05;11.82;;;5.93;;
74168;SDS011;62523;53.336;83.690;2024-01-11T22:08:06;9.13;;;4.63;;
74168;SDS011;62523;53.336;83.690;2024-01-11T22:13:08;10.45;;;6.05;;
74168;SDS011;62523;53.336;83.690;2024-01-11T22:18:09;9.98;;;5.72;;
74168;SDS011;62523;53.336;83.690;2024-01-11T22:23:11;7.53;;;4.88;;
74168;SDS011;62523;53.336;83.690;2024-01-11T22:28:12;9.68;;;5.93;;
74168;SDS011;62523;53.336;83.690;2024-01-11T22:33:14;10.87;;;5.93;;
74168;SDS011;62523;53.336;83.690;2024-01-11T22:38:15;13.18;;;6.75;;
74168;SDS011;62523;53.336;83.690;2024-01-11T22:43:17;10.25;;;6.15;;
74168;SDS011;62523;53.336;83.690;2024-01-11T22:48:18;9.38;;;6.60;;
74168;SDS011;62523;53.336;83.690;2024-01-11T22:53:19;8.98;;;6.40;;
74168;SDS011;62523;53.336;83.690;2024-01-11T22:58:21;13.10;;;7.75;;
74168;SDS011;62523;53.336;83.690;2024-01-11T23:08:25;17.10;;;8.52;;
74168;SDS011;62523;53.336;83.690;2024-01-11T23:18:28;11.13;;;6.85;;
74168;SDS011;62523;53.336;83.690;2024-01-11T23:23:29;18.13;;;9.40;;
74168;SDS011;62523;53.336;83.690;2024-01-11T23:28:31;16.43;;;9.37;;
74168;SDS011;62523;53.336;83.690;2024-01-11T23:33:32;17.10;;;9.70;;
74168;SDS011;62523;53.336;83.690;2024-01-11T23:38:34;16.10;;;9.40;;
74168;SDS011;62523;53.336;83.690;2024-01-11T23:43:35;18.63;;;12.13;;
74168;SDS011;62523;53.336;83.690;2024-01-11T23:48:37;13.63;;;8.60;;
74168;SDS011;62523;53.336;83.690;2024-01-11T23:58:39;21.98;;;13.10;;
